createdAt,value
2023-06-11T00:01:28.645Z,15.60
2023-06-11T00:03:56.117Z,15.60
2023-06-11T00:06:24.833Z,15.60
2023-06-11T00:08:53.276Z,15.50
2023-06-11T00:11:21.695Z,15.60
2023-06-11T00:13:49.624Z,15.50
2023-06-11T00:16:17.002Z,15.50
2023-06-11T00:18:44.600Z,15.50
2023-06-11T00:21:13.519Z,15.40
2023-06-11T00:23:40.479Z,15.40
2023-06-11T00:26:11.348Z,15.40
2023-06-11T00:28:38.484Z,15.30
2023-06-11T00:31:05.541Z,15.20
2023-06-11T00:33:32.643Z,15.30
2023-06-11T00:35:59.668Z,15.20
2023-06-11T00:38:26.616Z,15.20
2023-06-11T00:40:53.567Z,15.20
2023-06-11T00:43:24.388Z,15.20
2023-06-11T00:45:52.581Z,15.10
2023-06-11T00:48:21.278Z,15.00
2023-06-11T00:50:52.704Z,15.00
2023-06-11T00:53:23.275Z,15.00
2023-06-11T00:55:50.585Z,15.00
2023-06-11T00:58:18.945Z,15.00
2023-06-11T01:00:56.353Z,14.90
2023-06-11T01:03:28.501Z,14.90
2023-06-11T01:06:07.096Z,14.90
2023-06-11T01:08:41.904Z,14.80
2023-06-11T01:11:18.699Z,14.80
2023-06-11T01:13:45.565Z,14.80
2023-06-11T01:16:35.925Z,14.80
2023-06-11T01:19:32.828Z,14.70
2023-06-11T01:22:05.458Z,14.70
2023-06-11T01:25:00.207Z,14.60
2023-06-11T01:27:59.450Z,14.60
2023-06-11T01:30:27.163Z,14.60
2023-06-11T01:32:57.064Z,14.60
2023-06-11T01:35:24.836Z,14.50
2023-06-11T01:37:56.821Z,14.50
2023-06-11T01:40:24.383Z,14.50
2023-06-11T01:42:51.648Z,14.50
2023-06-11T01:45:19.395Z,14.40
2023-06-11T01:47:50.563Z,14.50
2023-06-11T01:50:18.492Z,14.40
2023-06-11T01:52:45.946Z,14.40
2023-06-11T01:55:13.567Z,14.50
2023-06-11T01:57:41.729Z,14.50
2023-06-11T02:00:12.402Z,14.40
2023-06-11T02:02:47.768Z,14.40
2023-06-11T02:05:14.968Z,14.40
2023-06-11T02:07:42.070Z,14.30
2023-06-11T02:10:09.329Z,14.30
2023-06-11T02:12:36.365Z,14.30
2023-06-11T02:15:03.733Z,14.20
2023-06-11T02:17:30.689Z,14.20
2023-06-11T02:19:57.587Z,14.20
2023-06-11T02:22:24.454Z,14.20
2023-06-11T02:24:52.218Z,14.10
2023-06-11T02:27:19.075Z,14.00
2023-06-11T02:29:45.960Z,14.00
2023-06-11T02:32:13.296Z,14.10
2023-06-11T02:34:40.266Z,14.10
2023-06-11T02:37:07.527Z,14.10
2023-06-11T02:39:34.509Z,14.00
2023-06-11T02:42:01.521Z,14.00
2023-06-11T02:44:28.353Z,14.00
2023-06-11T02:46:55.342Z,14.00
2023-06-11T02:49:22.334Z,14.00
2023-06-11T02:51:49.240Z,14.00
2023-06-11T02:54:16.492Z,14.00
2023-06-11T02:56:43.338Z,13.90
2023-06-11T02:59:10.387Z,14.00
2023-06-11T03:01:39.815Z,13.90
2023-06-11T03:04:07.201Z,13.90
2023-06-11T03:06:34.769Z,13.80
2023-06-11T03:09:01.740Z,13.80
2023-06-11T03:11:28.857Z,13.80
2023-06-11T03:13:55.807Z,13.90
2023-06-11T03:16:22.845Z,13.80
2023-06-11T03:18:49.703Z,13.80
2023-06-11T03:21:16.587Z,13.80
2023-06-11T03:23:43.529Z,13.90
2023-06-11T03:26:10.476Z,13.80
2023-06-11T03:28:37.343Z,13.80
2023-06-11T03:31:04.575Z,13.80
2023-06-11T03:33:31.455Z,13.90
2023-06-11T03:35:58.313Z,13.90
2023-06-11T03:38:25.256Z,13.90
2023-06-11T03:40:52.356Z,13.90
2023-06-11T03:43:19.285Z,14.00
2023-06-11T03:45:46.182Z,13.90
2023-06-11T03:48:13.023Z,13.80
2023-06-11T03:50:39.846Z,13.80
2023-06-11T03:53:07.725Z,13.70
2023-06-11T03:55:34.834Z,13.70
2023-06-11T03:58:01.708Z,13.80
2023-06-11T04:00:32.037Z,13.90
2023-06-11T04:03:00.455Z,14.00
2023-06-11T04:05:27.456Z,14.00
2023-06-11T04:07:54.416Z,14.10
2023-06-11T04:10:21.609Z,13.90
2023-06-11T04:12:48.968Z,14.00
2023-06-11T04:15:15.916Z,14.10
2023-06-11T04:17:42.825Z,14.20
2023-06-11T04:20:10.144Z,14.30
2023-06-11T04:22:37.219Z,14.30
2023-06-11T04:25:04.280Z,14.30
2023-06-11T04:27:34.815Z,14.40
2023-06-11T04:30:03.599Z,14.40
2023-06-11T04:32:35.775Z,14.40
2023-06-11T04:35:04.127Z,14.40
2023-06-11T04:37:39.357Z,14.50
2023-06-11T04:40:11.462Z,14.50
2023-06-11T04:42:41.701Z,14.40
2023-06-11T04:45:11.164Z,14.30
2023-06-11T04:47:38.796Z,14.40
2023-06-11T04:50:06.628Z,14.40
2023-06-11T04:52:36.223Z,14.40
2023-06-11T04:55:04.525Z,14.60
2023-06-11T04:57:35.152Z,14.60
2023-06-11T05:00:03.777Z,14.70
2023-06-11T05:02:30.695Z,14.80
2023-06-11T05:04:58.883Z,14.90
2023-06-11T05:07:25.922Z,14.90
2023-06-11T05:09:52.846Z,14.90
2023-06-11T05:12:19.700Z,14.80
2023-06-11T05:14:46.623Z,14.90
2023-06-11T05:17:14.309Z,15.00
2023-06-11T05:19:41.610Z,15.00
2023-06-11T05:22:08.871Z,15.20
2023-06-11T05:24:35.900Z,15.10
2023-06-11T05:27:05.096Z,15.20
2023-06-11T05:29:32.256Z,15.30
2023-06-11T05:31:59.634Z,15.30
2023-06-11T05:34:27.272Z,15.30
2023-06-11T05:36:54.396Z,15.40
2023-06-11T05:39:21.830Z,15.40
2023-06-11T05:41:48.698Z,15.40
2023-06-11T05:44:17.510Z,15.50
2023-06-11T05:46:44.828Z,15.50
2023-06-11T05:49:11.836Z,15.70
2023-06-11T05:51:38.732Z,15.80
2023-06-11T05:54:05.788Z,15.70
2023-06-11T05:56:32.659Z,15.70
2023-06-11T05:58:59.784Z,15.80
2023-06-11T06:01:26.677Z,16.00
2023-06-11T06:03:53.763Z,16.10
2023-06-11T06:06:20.789Z,16.10
2023-06-11T06:08:47.757Z,16.20
2023-06-11T06:11:14.673Z,16.30
2023-06-11T06:13:41.562Z,16.30
2023-06-11T06:16:08.781Z,16.40
2023-06-11T06:18:36.318Z,16.40
2023-06-11T06:21:03.241Z,16.60
2023-06-11T06:23:30.428Z,16.60
2023-06-11T06:25:57.294Z,16.60
2023-06-11T06:28:24.151Z,16.70
2023-06-11T06:30:51.374Z,16.80
2023-06-11T06:33:18.403Z,16.80
2023-06-11T06:35:45.407Z,16.70
2023-06-11T06:38:12.299Z,16.80
2023-06-11T06:40:39.143Z,16.80
2023-06-11T06:43:06.153Z,16.90
2023-06-11T06:45:34.717Z,16.80
2023-06-11T06:48:01.883Z,17.00
2023-06-11T06:50:28.885Z,17.10
2023-06-11T06:52:55.949Z,17.10
2023-06-11T06:55:22.919Z,17.10
2023-06-11T06:57:49.765Z,17.20
2023-06-11T07:00:17.380Z,17.40
2023-06-11T07:02:47.699Z,17.40
2023-06-11T07:05:14.645Z,17.50
2023-06-11T07:07:43.572Z,17.70
2023-06-11T07:10:11.567Z,17.70
2023-06-11T07:12:38.753Z,17.90
2023-06-11T07:15:06.140Z,18.00
2023-06-11T07:17:33.071Z,18.00
2023-06-11T07:20:00.003Z,18.10
2023-06-11T07:22:26.929Z,18.20
2023-06-11T07:24:53.854Z,18.20
2023-06-11T07:27:20.795Z,18.20
2023-06-11T07:29:48.015Z,18.30
2023-06-11T07:32:14.926Z,18.50
2023-06-11T07:34:43.496Z,18.50
2023-06-11T07:37:10.579Z,18.70
2023-06-11T07:39:37.433Z,18.90
2023-06-11T07:42:06.425Z,18.90
2023-06-11T07:44:33.364Z,19.00
2023-06-11T07:47:00.694Z,19.20
2023-06-11T07:49:27.639Z,19.50
2023-06-11T07:51:54.690Z,19.70
2023-06-11T07:54:21.569Z,19.80
2023-06-11T07:56:48.446Z,20.10
2023-06-11T07:59:16.586Z,20.40
2023-06-11T08:01:43.391Z,20.80
2023-06-11T08:04:10.193Z,20.70
2023-06-11T08:06:37.763Z,21.10
2023-06-11T08:09:05.089Z,21.10
2023-06-11T08:11:31.877Z,21.20
2023-06-11T08:13:58.685Z,21.50
2023-06-11T08:16:25.468Z,21.70
2023-06-11T08:18:52.235Z,21.80
2023-06-11T08:21:19.046Z,22.00
2023-06-11T08:23:45.859Z,21.80
2023-06-11T08:26:13.480Z,22.10
2023-06-11T08:28:40.589Z,22.10
2023-06-11T08:31:07.607Z,21.90
2023-06-11T08:33:34.529Z,21.80
2023-06-11T08:36:01.488Z,22.00
2023-06-11T08:38:29.329Z,22.10
2023-06-11T08:40:56.350Z,21.70
2023-06-11T08:43:23.455Z,22.10
2023-06-11T08:45:50.243Z,22.20
2023-06-11T08:48:21.237Z,22.10
2023-06-11T08:50:51.376Z,22.60
2023-06-11T08:53:18.331Z,22.60
2023-06-11T08:55:46.705Z,22.50
2023-06-11T08:58:14.470Z,22.10
2023-06-11T09:00:41.378Z,22.20
2023-06-11T09:03:09.545Z,22.80
2023-06-11T09:05:36.813Z,23.30
2023-06-11T09:08:08.643Z,23.00
2023-06-11T09:10:38.220Z,23.40
2023-06-11T09:13:08.716Z,23.80
2023-06-11T09:15:35.470Z,23.50
2023-06-11T09:18:03.013Z,23.40
2023-06-11T09:20:32.497Z,23.60
2023-06-11T09:22:59.289Z,24.10
2023-06-11T09:25:32.265Z,24.20
2023-06-11T09:28:06.454Z,23.90
2023-06-11T09:30:33.267Z,24.60
2023-06-11T09:33:00.135Z,25.10
2023-06-11T09:35:26.994Z,24.90
2023-06-11T09:37:54.106Z,24.40
2023-06-11T09:40:24.390Z,25.00
2023-06-11T09:42:52.027Z,24.90
2023-06-11T09:45:20.509Z,24.60
2023-06-11T09:47:50.071Z,24.50
2023-06-11T09:50:19.032Z,24.80
2023-06-11T09:52:46.891Z,23.80
2023-06-11T09:55:14.636Z,23.50
2023-06-11T09:57:43.216Z,23.70
2023-06-11T10:00:13.334Z,23.10
2023-06-11T10:02:42.571Z,22.60
2023-06-11T10:05:11.374Z,22.90
2023-06-11T10:07:47.129Z,22.50
2023-06-11T10:10:19.009Z,22.20
2023-06-11T10:12:50.845Z,22.20
2023-06-11T10:15:18.273Z,22.50
2023-06-11T10:17:48.365Z,22.70
2023-06-11T10:20:26.944Z,23.10
2023-06-11T10:23:13.035Z,23.40
2023-06-11T10:25:41.786Z,23.00
2023-06-11T10:28:10.615Z,22.80
2023-06-11T10:30:37.428Z,22.50
2023-06-11T10:33:04.454Z,22.10
2023-06-11T10:35:37.563Z,22.30
2023-06-11T10:38:06.481Z,22.20
2023-06-11T10:40:38.152Z,22.10
2023-06-11T10:43:37.217Z,21.50
2023-06-11T10:46:13.439Z,21.60
2023-06-11T10:48:51.077Z,21.60
2023-06-11T10:51:18.117Z,22.00
2023-06-11T10:53:45.001Z,22.20
2023-06-11T10:56:14.505Z,22.80
2023-06-11T10:58:42.017Z,23.20
2023-06-11T11:01:09.826Z,23.20
2023-06-11T11:03:39.654Z,23.50
2023-06-11T11:06:06.794Z,24.10
2023-06-11T11:08:33.612Z,24.60
2023-06-11T11:11:01.151Z,25.00
2023-06-11T11:13:29.969Z,24.30
2023-06-11T11:15:57.389Z,23.80
2023-06-11T11:18:24.323Z,23.40
2023-06-11T11:20:55.005Z,23.30
2023-06-11T11:23:24.086Z,23.20
2023-06-11T11:25:52.949Z,22.80
2023-06-11T11:28:19.850Z,23.00
2023-06-11T11:30:46.882Z,22.90
2023-06-11T11:33:14.001Z,22.60
2023-06-11T11:35:49.462Z,22.70
2023-06-11T11:38:16.497Z,22.60
2023-06-11T11:40:43.386Z,22.60
2023-06-11T11:43:14.658Z,22.60
2023-06-11T11:45:49.966Z,22.00
2023-06-11T11:48:17.676Z,21.80
2023-06-11T11:50:46.557Z,21.50
2023-06-11T11:53:19.564Z,21.40
2023-06-11T11:56:00.989Z,21.40
2023-06-11T11:58:43.148Z,21.40
2023-06-11T12:01:23.716Z,21.10
2023-06-11T12:04:04.418Z,21.40
2023-06-11T12:06:31.894Z,21.10
2023-06-11T12:08:59.434Z,21.10
2023-06-11T12:11:26.388Z,21.20
2023-06-11T12:13:53.306Z,20.80
2023-06-11T12:16:23.081Z,20.70
2023-06-11T12:18:50.032Z,20.70
2023-06-11T12:21:16.932Z,20.80
2023-06-11T12:23:43.837Z,20.70
2023-06-11T12:26:10.837Z,20.70
2023-06-11T12:28:37.865Z,20.70
2023-06-11T12:31:04.743Z,20.80
2023-06-11T12:33:32.176Z,20.60
2023-06-11T12:35:59.026Z,20.70
2023-06-11T12:38:26.129Z,20.60
2023-06-11T12:40:53.487Z,20.40
2023-06-11T12:43:20.636Z,20.30
2023-06-11T12:45:47.598Z,20.10
2023-06-11T12:48:16.284Z,20.30
2023-06-11T12:50:43.225Z,20.10
2023-06-11T12:53:10.124Z,20.10
2023-06-11T12:55:37.037Z,20.30
2023-06-11T12:58:05.874Z,20.30
2023-06-11T13:00:32.930Z,20.10
2023-06-11T13:03:00.050Z,20.10
2023-06-11T13:05:27.863Z,20.10
2023-06-11T13:07:55.215Z,20.10
2023-06-11T13:10:24.634Z,20.10
2023-06-11T13:12:53.858Z,20.10
2023-06-11T13:15:20.847Z,20.20
2023-06-11T13:17:47.812Z,20.20
2023-06-11T13:20:16.068Z,20.20
2023-06-11T13:22:44.942Z,20.20
2023-06-11T13:25:12.065Z,20.30
2023-06-11T13:27:38.952Z,20.30
2023-06-11T13:30:11.099Z,20.40
2023-06-11T13:32:38.594Z,20.70
2023-06-11T13:35:06.930Z,20.70
2023-06-11T13:37:34.204Z,20.70
2023-06-11T13:40:01.307Z,20.70
2023-06-11T13:42:28.225Z,21.20
2023-06-11T13:44:55.054Z,21.60
2023-06-11T13:47:22.070Z,21.90
2023-06-11T13:49:48.912Z,22.00
2023-06-11T13:52:15.779Z,21.80
2023-06-11T13:54:43.796Z,21.80
2023-06-11T13:57:11.668Z,21.80
2023-06-11T13:59:38.631Z,22.00
2023-06-11T14:02:05.762Z,21.90
2023-06-11T14:04:32.728Z,21.90
2023-06-11T14:06:59.829Z,21.90
2023-06-11T14:09:26.861Z,21.70
2023-06-11T14:11:53.910Z,21.40
2023-06-11T14:14:23.479Z,21.30
2023-06-11T14:16:51.818Z,21.40
2023-06-11T14:19:18.771Z,21.10
2023-06-11T14:21:45.805Z,21.30
2023-06-11T14:24:12.860Z,21.80
2023-06-11T14:26:39.793Z,22.30
2023-06-11T14:29:06.965Z,21.80
2023-06-11T14:31:36.299Z,21.80
2023-06-11T14:34:03.664Z,21.70
2023-06-11T14:36:31.166Z,21.60
2023-06-11T14:38:59.332Z,21.10
2023-06-11T14:41:26.283Z,21.10
2023-06-11T14:43:53.171Z,20.80
2023-06-11T14:46:20.212Z,20.60
2023-06-11T14:48:47.132Z,20.60
2023-06-11T14:51:14.019Z,20.70
2023-06-11T14:53:41.284Z,20.60
2023-06-11T14:56:08.178Z,20.80
2023-06-11T14:58:35.088Z,21.00
2023-06-11T15:01:04.298Z,20.70
2023-06-11T15:03:31.259Z,20.80
2023-06-11T15:05:58.231Z,20.80
2023-06-11T15:08:25.161Z,20.90
2023-06-11T15:10:51.997Z,21.10
2023-06-11T15:13:18.857Z,21.50
2023-06-11T15:15:45.928Z,21.60
2023-06-11T15:18:13.405Z,21.40
2023-06-11T15:20:40.305Z,21.00
2023-06-11T15:23:09.916Z,20.90
2023-06-11T15:25:38.006Z,21.10
2023-06-11T15:28:05.131Z,21.20
2023-06-11T15:30:32.026Z,21.40
2023-06-11T15:32:59.897Z,21.30
2023-06-11T15:35:27.126Z,21.50
2023-06-11T15:37:54.081Z,21.70
2023-06-11T15:40:21.028Z,21.80
2023-06-11T15:42:47.885Z,21.80
2023-06-11T15:45:15.110Z,21.70
2023-06-11T15:47:43.426Z,21.50
2023-06-11T15:50:11.174Z,21.40
2023-06-11T15:52:38.455Z,21.30
2023-06-11T15:55:05.937Z,21.30
2023-06-11T15:57:33.248Z,21.30
2023-06-11T16:00:00.351Z,21.10
2023-06-11T16:02:27.424Z,20.90
2023-06-11T16:04:54.299Z,20.60
2023-06-11T16:07:21.626Z,20.70
2023-06-11T16:09:48.570Z,20.80
2023-06-11T16:12:15.709Z,20.80
2023-06-11T16:14:43.083Z,20.80
2023-06-11T16:17:10.048Z,20.80
2023-06-11T16:19:37.008Z,20.80
2023-06-11T16:22:05.449Z,20.80
2023-06-11T16:24:33.069Z,20.80
2023-06-11T16:27:00.063Z,20.70
2023-06-11T16:29:27.003Z,20.20
2023-06-11T16:31:53.940Z,20.20
2023-06-11T16:34:20.901Z,20.00
2023-06-11T16:36:47.858Z,19.90
2023-06-11T16:39:25.383Z,19.70
2023-06-11T16:41:54.004Z,19.70
2023-06-11T16:44:21.030Z,19.60
2023-06-11T16:46:48.026Z,19.50
2023-06-11T16:49:15.087Z,19.30
2023-06-11T16:51:42.118Z,19.20
2023-06-11T16:54:09.404Z,19.10
2023-06-11T16:56:36.392Z,19.10
2023-06-11T16:59:03.315Z,19.00
2023-06-11T17:01:30.329Z,19.00
2023-06-11T17:03:57.482Z,18.90
2023-06-11T17:06:27.430Z,18.90
2023-06-11T17:08:55.232Z,18.90
2023-06-11T17:11:22.177Z,18.90
2023-06-11T17:13:49.052Z,18.80
2023-06-11T17:16:16.200Z,18.80
2023-06-11T17:18:43.884Z,18.70
2023-06-11T17:21:10.720Z,18.70
2023-06-11T17:23:37.655Z,18.70
2023-06-11T17:26:05.162Z,18.80
2023-06-11T17:28:32.042Z,18.70
2023-06-11T17:30:58.984Z,18.60
2023-06-11T17:33:26.571Z,18.50
2023-06-11T17:35:53.602Z,18.50
2023-06-11T17:38:21.368Z,18.30
2023-06-11T17:40:48.319Z,18.40
2023-06-11T17:43:15.260Z,18.30
2023-06-11T17:45:42.124Z,18.20
2023-06-11T17:48:09.326Z,18.20
2023-06-11T17:50:36.253Z,18.10
2023-06-11T17:53:03.415Z,18.10
2023-06-11T17:55:30.929Z,18.00
2023-06-11T17:57:58.042Z,17.90
2023-06-11T18:00:24.946Z,17.90
2023-06-11T18:02:52.316Z,17.80
2023-06-11T18:05:19.286Z,17.80
2023-06-11T18:07:47.251Z,17.70
2023-06-11T18:10:15.967Z,17.70
2023-06-11T18:12:44.136Z,17.70
2023-06-11T18:15:31.416Z,17.60
2023-06-11T18:18:00.082Z,17.60
2023-06-11T18:20:28.581Z,17.50
2023-06-11T18:22:56.001Z,17.50
2023-06-11T18:25:22.977Z,17.40
2023-06-11T18:27:50.205Z,17.40
2023-06-11T18:30:19.514Z,17.30
2023-06-11T18:32:46.577Z,17.30
2023-06-11T18:35:13.656Z,17.30
2023-06-11T18:37:41.597Z,17.30
2023-06-11T18:40:09.573Z,17.20
2023-06-11T18:42:37.229Z,17.20
2023-06-11T18:45:04.437Z,17.20
2023-06-11T18:47:31.334Z,17.10
2023-06-11T18:49:58.246Z,17.00
2023-06-11T18:52:25.207Z,17.00
2023-06-11T18:54:52.167Z,17.00
2023-06-11T18:57:20.896Z,17.10
2023-06-11T18:59:47.843Z,17.00
2023-06-11T19:02:14.740Z,17.00
2023-06-11T19:04:42.405Z,16.90
2023-06-11T19:07:09.680Z,16.90
2023-06-11T19:09:36.863Z,16.90
2023-06-11T19:12:03.875Z,16.90
2023-06-11T19:14:31.158Z,16.90
2023-06-11T19:16:58.178Z,16.90
2023-06-11T19:19:25.059Z,16.90
2023-06-11T19:21:51.952Z,16.90
2023-06-11T19:24:18.934Z,17.00
2023-06-11T19:26:45.797Z,17.00
2023-06-11T19:29:12.801Z,16.90
2023-06-11T19:31:40.113Z,16.90
2023-06-11T19:34:07.143Z,16.80
2023-06-11T19:36:33.997Z,16.80
2023-06-11T19:39:00.966Z,16.70
2023-06-11T19:41:30.376Z,16.60
2023-06-11T19:44:00.823Z,16.50
2023-06-11T19:46:30.842Z,16.40
2023-06-11T19:48:59.351Z,16.40
2023-06-11T19:51:26.477Z,16.40
2023-06-11T19:53:53.317Z,16.30
2023-06-11T19:56:21.076Z,16.30
2023-06-11T19:58:49.060Z,16.30
2023-06-11T20:01:17.691Z,16.30
2023-06-11T20:03:45.695Z,16.20
2023-06-11T20:06:13.688Z,16.20
2023-06-11T20:08:41.062Z,16.10
2023-06-11T20:11:12.140Z,16.00
2023-06-11T20:13:44.124Z,15.90
2023-06-11T20:16:11.800Z,15.80
2023-06-11T20:18:40.438Z,15.80
2023-06-11T20:21:07.513Z,15.70
2023-06-11T20:23:34.569Z,15.70
2023-06-11T20:26:01.607Z,15.70
2023-06-11T20:28:28.624Z,15.70
2023-06-11T20:30:56.784Z,15.70
2023-06-11T20:33:23.983Z,15.60
2023-06-11T20:35:51.589Z,15.50
2023-06-11T20:38:18.772Z,15.50
2023-06-11T20:40:46.556Z,15.40
2023-06-11T20:43:14.054Z,15.50
2023-06-11T20:45:51.229Z,15.50
2023-06-11T20:48:24.763Z,15.50
2023-06-11T20:50:51.824Z,15.30
2023-06-11T20:53:32.512Z,15.30
2023-06-11T20:56:01.424Z,15.20
2023-06-11T20:58:28.412Z,15.20
2023-06-11T21:00:55.367Z,15.30
2023-06-11T21:03:22.794Z,15.20
2023-06-11T21:05:53.887Z,15.20
2023-06-11T21:08:21.501Z,15.10
2023-06-11T21:10:48.913Z,15.10
2023-06-11T21:13:16.373Z,15.10
2023-06-11T21:15:43.430Z,15.10
2023-06-11T21:18:10.717Z,14.90
2023-06-11T21:20:39.422Z,14.80
2023-06-11T21:23:06.943Z,14.60
2023-06-11T21:25:34.061Z,14.40
2023-06-11T21:28:00.939Z,14.20
2023-06-11T21:30:27.891Z,14.20
2023-06-11T21:32:54.949Z,14.20
2023-06-11T21:35:21.792Z,14.20
2023-06-11T21:37:48.664Z,14.10
2023-06-11T21:40:16.029Z,14.00
2023-06-11T21:42:43.000Z,14.00
2023-06-11T21:45:10.290Z,14.00
2023-06-11T21:47:37.259Z,13.90
2023-06-11T21:50:06.682Z,13.90
2023-06-11T21:52:34.470Z,13.80
2023-06-11T21:55:02.897Z,13.80
2023-06-11T21:57:29.751Z,13.80
2023-06-11T21:59:56.614Z,13.90
2023-06-11T22:02:23.557Z,13.80
2023-06-11T22:04:53.630Z,13.70
2023-06-11T22:07:22.474Z,13.70
2023-06-11T22:09:49.372Z,13.60
2023-06-11T22:12:16.292Z,13.60
2023-06-11T22:14:43.192Z,13.60
2023-06-11T22:17:10.813Z,13.60
2023-06-11T22:19:39.724Z,13.70
2023-06-11T22:22:11.632Z,13.90
2023-06-11T22:24:39.356Z,13.90
2023-06-11T22:27:09.859Z,13.90
2023-06-11T22:29:36.762Z,13.80
2023-06-11T22:32:04.045Z,13.60
2023-06-11T22:34:30.950Z,13.50
2023-06-11T22:36:58.053Z,13.40
2023-06-11T22:39:24.883Z,13.50
2023-06-11T22:41:51.732Z,13.60
2023-06-11T22:44:18.608Z,13.70
2023-06-11T22:46:45.526Z,15.10
2023-06-11T22:49:12.683Z,13.50
2023-06-11T22:51:39.626Z,13.40
2023-06-11T22:54:09.435Z,13.40
2023-06-11T22:56:36.636Z,13.40
2023-06-11T22:59:03.592Z,13.40
2023-06-11T23:01:30.712Z,13.30
2023-06-11T23:03:57.652Z,13.30
2023-06-11T23:06:26.160Z,13.30
2023-06-11T23:08:52.992Z,13.30
2023-06-11T23:11:19.864Z,13.40
2023-06-11T23:13:46.910Z,13.40
2023-06-11T23:16:15.143Z,13.40
2023-06-11T23:18:43.337Z,13.30
2023-06-11T23:21:11.429Z,13.30
2023-06-11T23:23:42.524Z,13.30
2023-06-11T23:26:10.812Z,13.30
2023-06-11T23:28:38.226Z,13.30
2023-06-11T23:31:05.174Z,13.20
2023-06-11T23:33:32.136Z,13.30
2023-06-11T23:36:00.219Z,13.30
2023-06-11T23:38:27.427Z,13.30
2023-06-11T23:40:54.368Z,13.20
2023-06-11T23:43:21.296Z,13.30
2023-06-11T23:45:48.231Z,13.30
2023-06-11T23:48:15.167Z,13.30
2023-06-11T23:50:43.404Z,13.10
2023-06-11T23:53:11.438Z,13.10
2023-06-11T23:55:38.364Z,13.10
2023-06-11T23:58:14.204Z,13.10
